sensor_id;sensor_type;location;lat;lon;timestamp;P1;durP1;ratioP1;P2;durP2;ratioP2
29120;SDS011;16191;49.548;8.658;2023-09-07T00:00:39;4.85;;;1.98;;
29120;SDS011;16191;49.548;8.658;2023-09-07T00:03:06;7.95;;;2.55;;
29120;SDS011;16191;49.548;8.658;2023-09-07T00:05:33;3.40;;;2.00;;
29120;SDS011;16191;49.548;8.658;2023-09-07T00:07:59;2.85;;;2.00;;
29120;SDS011;16191;49.548;8.658;2023-09-07T00:10:26;4.63;;;2.20;;
29120;SDS011;16191;49.548;8.658;2023-09-07T00:12:53;4.28;;;2.33;;
29120;SDS011;16191;49.548;8.658;2023-09-07T00:15:19;1.98;;;1.80;;
29120;SDS011;16191;49.548;8.658;2023-09-07T00:17:47;6.53;;;2.20;;
29120;SDS011;16191;49.548;8.658;2023-09-07T00:20:14;4.43;;;2.30;;
29120;SDS011;16191;49.548;8.658;2023-09-07T00:22:41;2.80;;;2.33;;
29120;SDS011;16191;49.548;8.658;2023-09-07T00:25:07;2.85;;;2.08;;
29120;SDS011;16191;49.548;8.658;2023-09-07T00:27:35;8.40;;;2.17;;
29120;SDS011;16191;49.548;8.658;2023-09-07T00:30:02;5.55;;;2.05;;
29120;SDS011;16191;49.548;8.658;2023-09-07T00:32:35;4.40;;;2.15;;
29120;SDS011;16191;49.548;8.658;2023-09-07T00:35:02;2.30;;;1.75;;
29120;SDS011;16191;49.548;8.658;2023-09-07T00:37:29;3.40;;;2.00;;
29120;SDS011;16191;49.548;8.658;2023-09-07T00:39:56;5.50;;;2.30;;
29120;SDS011;16191;49.548;8.658;2023-09-07T00:42:23;8.88;;;2.35;;
29120;SDS011;16191;49.548;8.658;2023-09-07T00:44:49;8.45;;;2.20;;
29120;SDS011;16191;49.548;8.658;2023-09-07T00:47:16;3.80;;;2.20;;
29120;SDS011;16191;49.548;8.658;2023-09-07T00:49:44;6.07;;;2.65;;
29120;SDS011;16191;49.548;8.658;2023-09-07T00:52:11;3.17;;;2.30;;
29120;SDS011;16191;49.548;8.658;2023-09-07T00:54:39;4.20;;;2.30;;
29120;SDS011;16191;49.548;8.658;2023-09-07T00:57:07;6.53;;;2.40;;
29120;SDS011;16191;49.548;8.658;2023-09-07T00:59:34;5.72;;;2.28;;
29120;SDS011;16191;49.548;8.658;2023-09-07T01:02:00;5.43;;;2.40;;
29120;SDS011;16191;49.548;8.658;2023-09-07T01:04:27;3.55;;;2.05;;
29120;SDS011;16191;49.548;8.658;2023-09-07T01:07:00;3.17;;;2.00;;
29120;SDS011;16191;49.548;8.658;2023-09-07T01:09:31;2.92;;;2.30;;
29120;SDS011;16191;49.548;8.658;2023-09-07T01:12:01;2.38;;;1.85;;
29120;SDS011;16191;49.548;8.658;2023-09-07T01:14:27;4.38;;;2.50;;
29120;SDS011;16191;49.548;8.658;2023-09-07T01:16:54;7.72;;;2.50;;
29120;SDS011;16191;49.548;8.658;2023-09-07T01:19:21;5.40;;;2.20;;
29120;SDS011;16191;49.548;8.658;2023-09-07T01:21:48;4.70;;;2.15;;
29120;SDS011;16191;49.548;8.658;2023-09-07T01:24:16;3.35;;;2.30;;
29120;SDS011;16191;49.548;8.658;2023-09-07T01:26:44;5.03;;;2.13;;
29120;SDS011;16191;49.548;8.658;2023-09-07T01:29:15;3.95;;;2.22;;
29120;SDS011;16191;49.548;8.658;2023-09-07T01:31:45;3.38;;;2.40;;
29120;SDS011;16191;49.548;8.658;2023-09-07T01:34:12;7.38;;;2.67;;
29120;SDS011;16191;49.548;8.658;2023-09-07T01:36:39;6.65;;;2.10;;
29120;SDS011;16191;49.548;8.658;2023-09-07T01:39:06;5.28;;;2.28;;
29120;SDS011;16191;49.548;8.658;2023-09-07T01:41:53;3.80;;;2.28;;
29120;SDS011;16191;49.548;8.658;2023-09-07T01:44:39;3.25;;;2.05;;
29120;SDS011;16191;49.548;8.658;2023-09-07T01:47:26;8.40;;;2.50;;
29120;SDS011;16191;49.548;8.658;2023-09-07T01:50:13;5.50;;;2.20;;
29120;SDS011;16191;49.548;8.658;2023-09-07T01:53:00;7.90;;;2.67;;
29120;SDS011;16191;49.548;8.658;2023-09-07T01:55:49;3.35;;;2.42;;
29120;SDS011;16191;49.548;8.658;2023-09-07T01:58:17;2.80;;;2.40;;
29120;SDS011;16191;49.548;8.658;2023-09-07T02:00:43;2.85;;;2.35;;
29120;SDS011;16191;49.548;8.658;2023-09-07T02:03:10;5.32;;;2.30;;
29120;SDS011;16191;49.548;8.658;2023-09-07T02:05:37;5.32;;;2.15;;
29120;SDS011;16191;49.548;8.658;2023-09-07T02:08:05;5.07;;;2.30;;
29120;SDS011;16191;49.548;8.658;2023-09-07T02:10:32;3.30;;;2.30;;
29120;SDS011;16191;49.548;8.658;2023-09-07T02:13:00;3.50;;;2.35;;
29120;SDS011;16191;49.548;8.658;2023-09-07T02:15:26;4.22;;;2.15;;
29120;SDS011;16191;49.548;8.658;2023-09-07T02:17:53;4.70;;;2.30;;
29120;SDS011;16191;49.548;8.658;2023-09-07T02:20:20;9.23;;;2.65;;
29120;SDS011;16191;49.548;8.658;2023-09-07T02:22:47;4.65;;;2.40;;
29120;SDS011;16191;49.548;8.658;2023-09-07T02:25:13;5.22;;;2.50;;
29120;SDS011;16191;49.548;8.658;2023-09-07T02:27:40;4.07;;;2.50;;
29120;SDS011;16191;49.548;8.658;2023-09-07T02:30:07;3.22;;;2.30;;
29120;SDS011;16191;49.548;8.658;2023-09-07T02:32:34;3.70;;;2.10;;
29120;SDS011;16191;49.548;8.658;2023-09-07T02:35:01;4.50;;;2.28;;
29120;SDS011;16191;49.548;8.658;2023-09-07T02:37:27;3.83;;;2.25;;
29120;SDS011;16191;49.548;8.658;2023-09-07T02:39:54;6.35;;;2.70;;
29120;SDS011;16191;49.548;8.658;2023-09-07T02:42:20;3.35;;;2.20;;
29120;SDS011;16191;49.548;8.658;2023-09-07T02:44:47;4.18;;;2.58;;
29120;SDS011;16191;49.548;8.658;2023-09-07T02:47:14;3.58;;;2.33;;
29120;SDS011;16191;49.548;8.658;2023-09-07T02:49:40;3.75;;;2.25;;
29120;SDS011;16191;49.548;8.658;2023-09-07T02:52:07;3.28;;;2.17;;
29120;SDS011;16191;49.548;8.658;2023-09-07T02:54:34;5.68;;;2.47;;
29120;SDS011;16191;49.548;8.658;2023-09-07T02:57:01;4.97;;;2.55;;
29120;SDS011;16191;49.548;8.658;2023-09-07T02:59:28;3.67;;;2.28;;
29120;SDS011;16191;49.548;8.658;2023-09-07T03:01:55;3.22;;;2.25;;
29120;SDS011;16191;49.548;8.658;2023-09-07T03:04:22;2.60;;;2.17;;
29120;SDS011;16191;49.548;8.658;2023-09-07T03:06:49;2.92;;;2.20;;
29120;SDS011;16191;49.548;8.658;2023-09-07T03:09:16;3.83;;;2.35;;
29120;SDS011;16191;49.548;8.658;2023-09-07T03:11:43;3.90;;;2.40;;
29120;SDS011;16191;49.548;8.658;2023-09-07T03:14:09;3.65;;;2.40;;
29120;SDS011;16191;49.548;8.658;2023-09-07T03:16:36;2.88;;;2.55;;
29120;SDS011;16191;49.548;8.658;2023-09-07T03:19:02;4.55;;;2.92;;
29120;SDS011;16191;49.548;8.658;2023-09-07T03:21:29;3.50;;;2.72;;
29120;SDS011;16191;49.548;8.658;2023-09-07T03:23:56;6.07;;;2.70;;
29120;SDS011;16191;49.548;8.658;2023-09-07T03:26:25;9.25;;;2.40;;
29120;SDS011;16191;49.548;8.658;2023-09-07T03:28:52;8.05;;;2.78;;
29120;SDS011;16191;49.548;8.658;2023-09-07T03:31:19;4.43;;;2.70;;
29120;SDS011;16191;49.548;8.658;2023-09-07T03:33:46;3.05;;;2.10;;
29120;SDS011;16191;49.548;8.658;2023-09-07T03:36:12;4.35;;;2.10;;
29120;SDS011;16191;49.548;8.658;2023-09-07T03:38:42;3.03;;;2.20;;
29120;SDS011;16191;49.548;8.658;2023-09-07T03:41:11;5.30;;;2.90;;
29120;SDS011;16191;49.548;8.658;2023-09-07T03:43:38;4.25;;;2.85;;
29120;SDS011;16191;49.548;8.658;2023-09-07T03:46:05;6.57;;;2.60;;
29120;SDS011;16191;49.548;8.658;2023-09-07T03:48:32;4.15;;;3.00;;
29120;SDS011;16191;49.548;8.658;2023-09-07T03:51:00;5.13;;;3.05;;
29120;SDS011;16191;49.548;8.658;2023-09-07T03:53:27;7.78;;;3.08;;
29120;SDS011;16191;49.548;8.658;2023-09-07T03:55:53;3.35;;;2.70;;
29120;SDS011;16191;49.548;8.658;2023-09-07T03:58:20;4.85;;;2.83;;
29120;SDS011;16191;49.548;8.658;2023-09-07T04:00:47;7.50;;;2.92;;
29120;SDS011;16191;49.548;8.658;2023-09-07T04:03:14;3.78;;;2.17;;
29120;SDS011;16191;49.548;8.658;2023-09-07T04:05:41;3.55;;;2.70;;
29120;SDS011;16191;49.548;8.658;2023-09-07T04:08:08;7.13;;;2.47;;
29120;SDS011;16191;49.548;8.658;2023-09-07T04:10:38;3.83;;;2.72;;
29120;SDS011;16191;49.548;8.658;2023-09-07T04:13:05;3.10;;;2.67;;
29120;SDS011;16191;49.548;8.658;2023-09-07T04:15:42;6.47;;;2.67;;
29120;SDS011;16191;49.548;8.658;2023-09-07T04:18:11;3.53;;;2.55;;
29120;SDS011;16191;49.548;8.658;2023-09-07T04:20:39;7.47;;;2.65;;
29120;SDS011;16191;49.548;8.658;2023-09-07T04:23:06;6.45;;;2.47;;
29120;SDS011;16191;49.548;8.658;2023-09-07T04:25:33;3.17;;;2.55;;
29120;SDS011;16191;49.548;8.658;2023-09-07T04:27:59;4.07;;;2.63;;
29120;SDS011;16191;49.548;8.658;2023-09-07T04:30:26;6.65;;;2.83;;
29120;SDS011;16191;49.548;8.658;2023-09-07T04:32:53;3.78;;;2.60;;
29120;SDS011;16191;49.548;8.658;2023-09-07T04:35:21;3.67;;;2.40;;
29120;SDS011;16191;49.548;8.658;2023-09-07T04:37:52;4.47;;;2.80;;
29120;SDS011;16191;49.548;8.658;2023-09-07T04:40:19;7.75;;;3.05;;
29120;SDS011;16191;49.548;8.658;2023-09-07T04:42:46;9.80;;;3.05;;
29120;SDS011;16191;49.548;8.658;2023-09-07T04:45:12;6.35;;;3.03;;
29120;SDS011;16191;49.548;8.658;2023-09-07T04:47:39;3.03;;;2.35;;
29120;SDS011;16191;49.548;8.658;2023-09-07T04:50:06;9.57;;;2.75;;
29120;SDS011;16191;49.548;8.658;2023-09-07T04:52:34;4.00;;;2.80;;
29120;SDS011;16191;49.548;8.658;2023-09-07T04:55:01;4.78;;;3.30;;
29120;SDS011;16191;49.548;8.658;2023-09-07T04:57:29;8.63;;;3.20;;
29120;SDS011;16191;49.548;8.658;2023-09-07T04:59:57;6.70;;;3.55;;
29120;SDS011;16191;49.548;8.658;2023-09-07T05:02:23;6.22;;;3.60;;
29120;SDS011;16191;49.548;8.658;2023-09-07T05:04:50;6.07;;;3.72;;
29120;SDS011;16191;49.548;8.658;2023-09-07T05:07:17;10.93;;;3.60;;
29120;SDS011;16191;49.548;8.658;2023-09-07T05:09:43;11.18;;;3.30;;
29120;SDS011;16191;49.548;8.658;2023-09-07T05:12:10;9.00;;;3.15;;
29120;SDS011;16191;49.548;8.658;2023-09-07T05:14:37;6.10;;;2.88;;
29120;SDS011;16191;49.548;8.658;2023-09-07T05:17:04;9.77;;;3.22;;
29120;SDS011;16191;49.548;8.658;2023-09-07T05:19:30;5.57;;;2.88;;
29120;SDS011;16191;49.548;8.658;2023-09-07T05:21:57;8.18;;;4.43;;
29120;SDS011;16191;49.548;8.658;2023-09-07T05:24:23;10.95;;;3.63;;
29120;SDS011;16191;49.548;8.658;2023-09-07T05:26:51;6.00;;;3.75;;
29120;SDS011;16191;49.548;8.658;2023-09-07T05:29:17;6.65;;;2.95;;
29120;SDS011;16191;49.548;8.658;2023-09-07T05:31:44;4.78;;;3.40;;
29120;SDS011;16191;49.548;8.658;2023-09-07T05:34:11;7.55;;;3.13;;
29120;SDS011;16191;49.548;8.658;2023-09-07T05:36:37;5.18;;;2.83;;
29120;SDS011;16191;49.548;8.658;2023-09-07T05:39:04;2.78;;;2.58;;
29120;SDS011;16191;49.548;8.658;2023-09-07T05:41:31;4.13;;;2.45;;
29120;SDS011;16191;49.548;8.658;2023-09-07T05:43:58;5.18;;;3.13;;
29120;SDS011;16191;49.548;8.658;2023-09-07T05:46:24;3.35;;;2.70;;
29120;SDS011;16191;49.548;8.658;2023-09-07T05:48:51;4.30;;;2.50;;
29120;SDS011;16191;49.548;8.658;2023-09-07T05:51:18;3.30;;;2.40;;
29120;SDS011;16191;49.548;8.658;2023-09-07T05:53:44;3.40;;;2.80;;
29120;SDS011;16191;49.548;8.658;2023-09-07T05:56:11;5.20;;;2.80;;
29120;SDS011;16191;49.548;8.658;2023-09-07T05:58:37;7.25;;;2.58;;
29120;SDS011;16191;49.548;8.658;2023-09-07T06:01:04;5.65;;;2.53;;
29120;SDS011;16191;49.548;8.658;2023-09-07T06:03:32;7.15;;;2.78;;
29120;SDS011;16191;49.548;8.658;2023-09-07T06:06:01;4.05;;;2.60;;
29120;SDS011;16191;49.548;8.658;2023-09-07T06:08:29;8.55;;;3.05;;
29120;SDS011;16191;49.548;8.658;2023-09-07T06:10:56;4.07;;;2.85;;
29120;SDS011;16191;49.548;8.658;2023-09-07T06:13:23;6.43;;;3.33;;
29120;SDS011;16191;49.548;8.658;2023-09-07T06:15:49;6.57;;;2.85;;
29120;SDS011;16191;49.548;8.658;2023-09-07T06:18:16;7.32;;;3.15;;
29120;SDS011;16191;49.548;8.658;2023-09-07T06:20:43;6.35;;;2.78;;
29120;SDS011;16191;49.548;8.658;2023-09-07T06:23:09;3.88;;;2.65;;
29120;SDS011;16191;49.548;8.658;2023-09-07T06:25:36;6.25;;;2.85;;
29120;SDS011;16191;49.548;8.658;2023-09-07T06:28:03;4.68;;;2.65;;
29120;SDS011;16191;49.548;8.658;2023-09-07T06:30:30;6.55;;;3.08;;
29120;SDS011;16191;49.548;8.658;2023-09-07T06:32:56;3.30;;;2.60;;
29120;SDS011;16191;49.548;8.658;2023-09-07T06:35:25;2.75;;;2.40;;
29120;SDS011;16191;49.548;8.658;2023-09-07T06:37:52;6.70;;;3.03;;
29120;SDS011;16191;49.548;8.658;2023-09-07T06:40:22;4.70;;;2.73;;
29120;SDS011;16191;49.548;8.658;2023-09-07T06:42:52;4.70;;;2.95;;
29120;SDS011;16191;49.548;8.658;2023-09-07T06:45:21;4.43;;;2.70;;
29120;SDS011;16191;49.548;8.658;2023-09-07T06:47:50;3.97;;;2.78;;
29120;SDS011;16191;49.548;8.658;2023-09-07T06:50:19;5.63;;;2.70;;
29120;SDS011;16191;49.548;8.658;2023-09-07T06:52:46;8.55;;;3.38;;
29120;SDS011;16191;49.548;8.658;2023-09-07T06:55:13;5.32;;;2.95;;
29120;SDS011;16191;49.548;8.658;2023-09-07T06:57:40;6.85;;;3.58;;
29120;SDS011;16191;49.548;8.658;2023-09-07T07:00:06;4.40;;;2.58;;
29120;SDS011;16191;49.548;8.658;2023-09-07T07:02:35;4.32;;;2.83;;
29120;SDS011;16191;49.548;8.658;2023-09-07T07:05:02;4.13;;;2.70;;
29120;SDS011;16191;49.548;8.658;2023-09-07T07:07:30;5.68;;;3.20;;
29120;SDS011;16191;49.548;8.658;2023-09-07T07:09:57;3.97;;;2.72;;
29120;SDS011;16191;49.548;8.658;2023-09-07T07:12:24;6.88;;;2.90;;
29120;SDS011;16191;49.548;8.658;2023-09-07T07:14:50;9.02;;;2.40;;
29120;SDS011;16191;49.548;8.658;2023-09-07T07:17:17;4.95;;;2.83;;
29120;SDS011;16191;49.548;8.658;2023-09-07T07:19:44;4.18;;;2.67;;
29120;SDS011;16191;49.548;8.658;2023-09-07T07:22:10;5.05;;;2.60;;
29120;SDS011;16191;49.548;8.658;2023-09-07T07:24:37;6.75;;;2.78;;
29120;SDS011;16191;49.548;8.658;2023-09-07T07:27:03;6.05;;;2.78;;
29120;SDS011;16191;49.548;8.658;2023-09-07T07:29:33;4.93;;;2.90;;
29120;SDS011;16191;49.548;8.658;2023-09-07T07:32:00;4.35;;;2.95;;
29120;SDS011;16191;49.548;8.658;2023-09-07T07:34:27;4.00;;;2.40;;
29120;SDS011;16191;49.548;8.658;2023-09-07T07:36:55;5.40;;;2.50;;
29120;SDS011;16191;49.548;8.658;2023-09-07T07:39:22;4.90;;;2.60;;
29120;SDS011;16191;49.548;8.658;2023-09-07T07:41:48;5.78;;;2.40;;
29120;SDS011;16191;49.548;8.658;2023-09-07T07:44:16;4.90;;;2.85;;
29120;SDS011;16191;49.548;8.658;2023-09-07T07:46:43;3.30;;;2.58;;
29120;SDS011;16191;49.548;8.658;2023-09-07T07:49:11;4.35;;;2.50;;
29120;SDS011;16191;49.548;8.658;2023-09-07T07:51:37;6.53;;;2.90;;
29120;SDS011;16191;49.548;8.658;2023-09-07T07:54:04;4.15;;;2.17;;
29120;SDS011;16191;49.548;8.658;2023-09-07T07:56:31;3.28;;;2.20;;
29120;SDS011;16191;49.548;8.658;2023-09-07T07:59:00;3.45;;;2.60;;
29120;SDS011;16191;49.548;8.658;2023-09-07T08:01:27;5.18;;;2.50;;
29120;SDS011;16191;49.548;8.658;2023-09-07T08:03:54;5.13;;;2.47;;
29120;SDS011;16191;49.548;8.658;2023-09-07T08:06:22;6.57;;;2.55;;
29120;SDS011;16191;49.548;8.658;2023-09-07T08:08:49;4.63;;;2.72;;
29120;SDS011;16191;49.548;8.658;2023-09-07T08:11:16;4.22;;;2.33;;
29120;SDS011;16191;49.548;8.658;2023-09-07T08:13:43;4.38;;;2.70;;
29120;SDS011;16191;49.548;8.658;2023-09-07T08:18:40;4.20;;;2.88;;
29120;SDS011;16191;49.548;8.658;2023-09-07T08:21:09;4.03;;;2.47;;
29120;SDS011;16191;49.548;8.658;2023-09-07T08:23:36;4.07;;;2.47;;
29120;SDS011;16191;49.548;8.658;2023-09-07T08:26:03;5.07;;;2.90;;
29120;SDS011;16191;49.548;8.658;2023-09-07T08:28:32;5.53;;;2.65;;
29120;SDS011;16191;49.548;8.658;2023-09-07T08:30:59;4.07;;;2.75;;
29120;SDS011;16191;49.548;8.658;2023-09-07T08:33:27;5.22;;;2.63;;
29120;SDS011;16191;49.548;8.658;2023-09-07T08:35:56;3.53;;;2.53;;
29120;SDS011;16191;49.548;8.658;2023-09-07T08:38:23;7.90;;;3.17;;
29120;SDS011;16191;49.548;8.658;2023-09-07T08:40:54;6.25;;;2.75;;
29120;SDS011;16191;49.548;8.658;2023-09-07T08:43:21;7.97;;;2.72;;
29120;SDS011;16191;49.548;8.658;2023-09-07T08:45:58;5.50;;;2.50;;
29120;SDS011;16191;49.548;8.658;2023-09-07T08:48:36;4.55;;;2.58;;
29120;SDS011;16191;49.548;8.658;2023-09-07T08:51:03;10.15;;;2.80;;
29120;SDS011;16191;49.548;8.658;2023-09-07T08:53:32;6.47;;;3.00;;
29120;SDS011;16191;49.548;8.658;2023-09-07T08:56:00;4.93;;;2.80;;
29120;SDS011;16191;49.548;8.658;2023-09-07T08:58:27;6.18;;;2.55;;
29120;SDS011;16191;49.548;8.658;2023-09-07T09:00:55;5.20;;;2.53;;
29120;SDS011;16191;49.548;8.658;2023-09-07T09:03:33;4.10;;;2.22;;
29120;SDS011;16191;49.548;8.658;2023-09-07T09:06:02;5.53;;;2.83;;
29120;SDS011;16191;49.548;8.658;2023-09-07T09:08:41;5.65;;;2.47;;
29120;SDS011;16191;49.548;8.658;2023-09-07T09:11:08;5.00;;;2.83;;
29120;SDS011;16191;49.548;8.658;2023-09-07T09:13:35;2.97;;;2.47;;
29120;SDS011;16191;49.548;8.658;2023-09-07T09:16:03;6.50;;;3.22;;
29120;SDS011;16191;49.548;8.658;2023-09-07T09:18:30;4.75;;;2.60;;
29120;SDS011;16191;49.548;8.658;2023-09-07T09:20:57;5.20;;;2.78;;
29120;SDS011;16191;49.548;8.658;2023-09-07T09:23:32;4.40;;;2.03;;
29120;SDS011;16191;49.548;8.658;2023-09-07T09:26:00;7.95;;;2.40;;
29120;SDS011;16191;49.548;8.658;2023-09-07T09:28:30;3.30;;;2.28;;
29120;SDS011;16191;49.548;8.658;2023-09-07T09:31:01;6.30;;;2.13;;
29120;SDS011;16191;49.548;8.658;2023-09-07T09:33:30;3.92;;;2.53;;
29120;SDS011;16191;49.548;8.658;2023-09-07T09:35:57;4.75;;;2.47;;
29120;SDS011;16191;49.548;8.658;2023-09-07T09:38:24;3.13;;;2.40;;
29120;SDS011;16191;49.548;8.658;2023-09-07T09:40:52;4.80;;;2.42;;
29120;SDS011;16191;49.548;8.658;2023-09-07T09:43:19;4.45;;;2.28;;
29120;SDS011;16191;49.548;8.658;2023-09-07T09:45:46;8.40;;;2.38;;
29120;SDS011;16191;49.548;8.658;2023-09-07T09:48:20;5.95;;;2.97;;
29120;SDS011;16191;49.548;8.658;2023-09-07T09:50:49;9.63;;;2.95;;
29120;SDS011;16191;49.548;8.658;2023-09-07T09:53:16;6.70;;;2.80;;
29120;SDS011;16191;49.548;8.658;2023-09-07T09:55:47;10.90;;;2.92;;
29120;SDS011;16191;49.548;8.658;2023-09-07T09:58:14;4.07;;;2.38;;
29120;SDS011;16191;49.548;8.658;2023-09-07T10:00:46;5.18;;;2.30;;
29120;SDS011;16191;49.548;8.658;2023-09-07T10:03:17;3.90;;;2.20;;
29120;SDS011;16191;49.548;8.658;2023-09-07T10:05:50;4.78;;;2.47;;
29120;SDS011;16191;49.548;8.658;2023-09-07T10:08:17;8.05;;;2.90;;
29120;SDS011;16191;49.548;8.658;2023-09-07T10:10:48;4.22;;;2.60;;
29120;SDS011;16191;49.548;8.658;2023-09-07T10:13:29;3.22;;;2.42;;
29120;SDS011;16191;49.548;8.658;2023-09-07T10:16:04;5.65;;;2.30;;
29120;SDS011;16191;49.548;8.658;2023-09-07T10:18:36;2.45;;;2.13;;
29120;SDS011;16191;49.548;8.658;2023-09-07T10:21:04;5.32;;;2.42;;
29120;SDS011;16191;49.548;8.658;2023-09-07T10:26:05;4.07;;;2.13;;
29120;SDS011;16191;49.548;8.658;2023-09-07T10:28:40;4.05;;;2.28;;
29120;SDS011;16191;49.548;8.658;2023-09-07T10:31:12;8.38;;;3.50;;
29120;SDS011;16191;49.548;8.658;2023-09-07T10:33:40;2.40;;;2.20;;
29120;SDS011;16191;49.548;8.658;2023-09-07T10:36:07;4.72;;;2.20;;
29120;SDS011;16191;49.548;8.658;2023-09-07T10:38:35;3.05;;;2.35;;
29120;SDS011;16191;49.548;8.658;2023-09-07T10:41:02;5.47;;;2.40;;
29120;SDS011;16191;49.548;8.658;2023-09-07T10:43:32;4.38;;;2.10;;
29120;SDS011;16191;49.548;8.658;2023-09-07T10:46:01;5.03;;;2.17;;
29120;SDS011;16191;49.548;8.658;2023-09-07T10:48:29;4.63;;;2.33;;
29120;SDS011;16191;49.548;8.658;2023-09-07T10:50:56;4.30;;;2.35;;
29120;SDS011;16191;49.548;8.658;2023-09-07T10:53:24;3.30;;;2.35;;
29120;SDS011;16191;49.548;8.658;2023-09-07T10:55:53;3.10;;;1.95;;
29120;SDS011;16191;49.548;8.658;2023-09-07T10:58:26;4.22;;;2.05;;
29120;SDS011;16191;49.548;8.658;2023-09-07T11:00:57;3.40;;;1.95;;
29120;SDS011;16191;49.548;8.658;2023-09-07T11:03:24;4.78;;;1.98;;
29120;SDS011;16191;49.548;8.658;2023-09-07T11:06:02;3.08;;;2.00;;
29120;SDS011;16191;49.548;8.658;2023-09-07T11:08:32;3.67;;;2.60;;
29120;SDS011;16191;49.548;8.658;2023-09-07T11:11:02;6.13;;;2.05;;
29120;SDS011;16191;49.548;8.658;2023-09-07T11:13:29;3.42;;;2.30;;
29120;SDS011;16191;49.548;8.658;2023-09-07T11:15:57;3.03;;;1.80;;
29120;SDS011;16191;49.548;8.658;2023-09-07T11:18:25;2.95;;;2.08;;
29120;SDS011;16191;49.548;8.658;2023-09-07T11:20:53;2.50;;;1.55;;
29120;SDS011;16191;49.548;8.658;2023-09-07T11:23:21;3.20;;;1.80;;
29120;SDS011;16191;49.548;8.658;2023-09-07T11:25:49;2.08;;;1.70;;
29120;SDS011;16191;49.548;8.658;2023-09-07T11:28:18;3.30;;;2.03;;
29120;SDS011;16191;49.548;8.658;2023-09-07T11:30:52;5.85;;;1.80;;
29120;SDS011;16191;49.548;8.658;2023-09-07T11:33:21;4.55;;;1.65;;
29120;SDS011;16191;49.548;8.658;2023-09-07T11:35:49;3.45;;;1.77;;
29120;SDS011;16191;49.548;8.658;2023-09-07T11:38:17;1.95;;;1.50;;
29120;SDS011;16191;49.548;8.658;2023-09-07T11:40:44;2.63;;;1.77;;
29120;SDS011;16191;49.548;8.658;2023-09-07T11:43:12;4.35;;;1.70;;
29120;SDS011;16191;49.548;8.658;2023-09-07T11:45:40;5.50;;;1.80;;
29120;SDS011;16191;49.548;8.658;2023-09-07T11:48:08;2.97;;;2.10;;
29120;SDS011;16191;49.548;8.658;2023-09-07T11:50:36;4.07;;;2.03;;
29120;SDS011;16191;49.548;8.658;2023-09-07T11:53:03;2.83;;;1.65;;
29120;SDS011;16191;49.548;8.658;2023-09-07T11:55:31;2.85;;;1.75;;
29120;SDS011;16191;49.548;8.658;2023-09-07T11:57:58;3.63;;;2.22;;
29120;SDS011;16191;49.548;8.658;2023-09-07T12:00:25;4.93;;;1.88;;
29120;SDS011;16191;49.548;8.658;2023-09-07T12:02:52;2.28;;;1.50;;
29120;SDS011;16191;49.548;8.658;2023-09-07T12:05:18;2.60;;;1.50;;
29120;SDS011;16191;49.548;8.658;2023-09-07T12:07:46;3.55;;;2.47;;
29120;SDS011;16191;49.548;8.658;2023-09-07T12:10:12;4.32;;;1.80;;
29120;SDS011;16191;49.548;8.658;2023-09-07T12:12:40;7.60;;;1.92;;
29120;SDS011;16191;49.548;8.658;2023-09-07T12:15:08;3.42;;;1.73;;
29120;SDS011;16191;49.548;8.658;2023-09-07T12:17:35;4.35;;;1.90;;
29120;SDS011;16191;49.548;8.658;2023-09-07T12:20:02;4.40;;;1.80;;
29120;SDS011;16191;49.548;8.658;2023-09-07T12:22:29;2.17;;;1.80;;
29120;SDS011;16191;49.548;8.658;2023-09-07T12:24:56;2.47;;;1.90;;
29120;SDS011;16191;49.548;8.658;2023-09-07T12:27:39;2.65;;;1.77;;
29120;SDS011;16191;49.548;8.658;2023-09-07T12:30:19;2.95;;;1.70;;
29120;SDS011;16191;49.548;8.658;2023-09-07T12:32:47;3.90;;;1.92;;
29120;SDS011;16191;49.548;8.658;2023-09-07T12:35:14;4.22;;;1.90;;
29120;SDS011;16191;49.548;8.658;2023-09-07T12:37:42;3.25;;;1.80;;
29120;SDS011;16191;49.548;8.658;2023-09-07T12:40:09;2.90;;;1.60;;
29120;SDS011;16191;49.548;8.658;2023-09-07T12:42:43;4.95;;;1.70;;
29120;SDS011;16191;49.548;8.658;2023-09-07T12:45:11;5.47;;;2.08;;
29120;SDS011;16191;49.548;8.658;2023-09-07T12:47:40;3.22;;;1.80;;
29120;SDS011;16191;49.548;8.658;2023-09-07T12:50:07;3.97;;;1.90;;
29120;SDS011;16191;49.548;8.658;2023-09-07T12:52:34;2.55;;;1.95;;
29120;SDS011;16191;49.548;8.658;2023-09-07T12:55:04;6.13;;;2.03;;
29120;SDS011;16191;49.548;8.658;2023-09-07T12:57:32;2.10;;;1.83;;
29120;SDS011;16191;49.548;8.658;2023-09-07T12:59:59;5.88;;;1.80;;
29120;SDS011;16191;49.548;8.658;2023-09-07T13:02:26;2.42;;;1.55;;
29120;SDS011;16191;49.548;8.658;2023-09-07T13:04:54;5.25;;;1.70;;
29120;SDS011;16191;49.548;8.658;2023-09-07T13:07:22;4.35;;;1.70;;
29120;SDS011;16191;49.548;8.658;2023-09-07T13:09:49;3.78;;;1.83;;
29120;SDS011;16191;49.548;8.658;2023-09-07T13:12:16;4.30;;;1.90;;
29120;SDS011;16191;49.548;8.658;2023-09-07T13:14:42;2.67;;;1.90;;
29120;SDS011;16191;49.548;8.658;2023-09-07T13:17:13;8.38;;;1.88;;
29120;SDS011;16191;49.548;8.658;2023-09-07T13:19:43;5.03;;;1.90;;
29120;SDS011;16191;49.548;8.658;2023-09-07T13:22:10;5.53;;;2.00;;
29120;SDS011;16191;49.548;8.658;2023-09-07T13:24:37;4.47;;;1.85;;
29120;SDS011;16191;49.548;8.658;2023-09-07T13:27:04;4.18;;;2.03;;
29120;SDS011;16191;49.548;8.658;2023-09-07T13:29:31;11.75;;;2.17;;
29120;SDS011;16191;49.548;8.658;2023-09-07T13:31:58;4.20;;;1.77;;
29120;SDS011;16191;49.548;8.658;2023-09-07T13:34:25;1.90;;;1.55;;
29120;SDS011;16191;49.548;8.658;2023-09-07T13:36:52;1.98;;;1.77;;
29120;SDS011;16191;49.548;8.658;2023-09-07T13:39:20;3.20;;;1.90;;
29120;SDS011;16191;49.548;8.658;2023-09-07T13:41:47;3.05;;;1.80;;
29120;SDS011;16191;49.548;8.658;2023-09-07T13:44:14;4.15;;;1.95;;
29120;SDS011;16191;49.548;8.658;2023-09-07T13:46:42;5.40;;;2.20;;
29120;SDS011;16191;49.548;8.658;2023-09-07T13:49:10;5.45;;;2.00;;
29120;SDS011;16191;49.548;8.658;2023-09-07T13:51:41;2.80;;;1.63;;
29120;SDS011;16191;49.548;8.658;2023-09-07T13:54:09;4.13;;;1.80;;
29120;SDS011;16191;49.548;8.658;2023-09-07T13:56:36;4.28;;;1.92;;
29120;SDS011;16191;49.548;8.658;2023-09-07T13:59:03;3.25;;;2.00;;
29120;SDS011;16191;49.548;8.658;2023-09-07T14:01:31;3.97;;;1.90;;
29120;SDS011;16191;49.548;8.658;2023-09-07T14:03:58;3.10;;;1.65;;
29120;SDS011;16191;49.548;8.658;2023-09-07T14:06:26;4.88;;;2.10;;
29120;SDS011;16191;49.548;8.658;2023-09-07T14:08:52;6.00;;;1.98;;
29120;SDS011;16191;49.548;8.658;2023-09-07T14:11:19;6.88;;;2.40;;
29120;SDS011;16191;49.548;8.658;2023-09-07T14:13:47;2.78;;;2.08;;
29120;SDS011;16191;49.548;8.658;2023-09-07T14:16:16;3.80;;;1.73;;
29120;SDS011;16191;49.548;8.658;2023-09-07T14:18:43;2.15;;;1.67;;
29120;SDS011;16191;49.548;8.658;2023-09-07T14:21:10;3.88;;;1.90;;
29120;SDS011;16191;49.548;8.658;2023-09-07T14:23:37;3.13;;;1.65;;
29120;SDS011;16191;49.548;8.658;2023-09-07T14:26:04;1.90;;;1.60;;
29120;SDS011;16191;49.548;8.658;2023-09-07T14:28:30;6.68;;;2.00;;
29120;SDS011;16191;49.548;8.658;2023-09-07T14:30:57;5.47;;;1.90;;
29120;SDS011;16191;49.548;8.658;2023-09-07T14:33:26;2.28;;;2.00;;
29120;SDS011;16191;49.548;8.658;2023-09-07T14:35:52;4.40;;;2.05;;
29120;SDS011;16191;49.548;8.658;2023-09-07T14:38:21;2.45;;;1.80;;
29120;SDS011;16191;49.548;8.658;2023-09-07T14:40:49;3.50;;;1.85;;
29120;SDS011;16191;49.548;8.658;2023-09-07T14:43:16;2.65;;;1.70;;
29120;SDS011;16191;49.548;8.658;2023-09-07T14:45:43;6.07;;;2.33;;
29120;SDS011;16191;49.548;8.658;2023-09-07T14:48:10;5.00;;;1.70;;
29120;SDS011;16191;49.548;8.658;2023-09-07T14:50:37;2.42;;;1.60;;
29120;SDS011;16191;49.548;8.658;2023-09-07T14:53:04;7.90;;;1.60;;
29120;SDS011;16191;49.548;8.658;2023-09-07T14:55:31;3.63;;;1.85;;
29120;SDS011;16191;49.548;8.658;2023-09-07T14:57:58;2.88;;;1.80;;